Asheville, NC

1:34 PM EST on December 26, 2014 (GMT -0500)
Greenville-Spartanburg International | Change Station
CLOSE
Current Station
Airport
Location: Greenville/Spartanburg,
Elevation: 971 ft
Nearby Weather Stations

Elev 971 ft 34.88 °N, 82.22 °W | Updated 41 minutes ago

Clear
Clear
56 °F
Feels Like 56 °F
N
7
Wind Variable Wind from SSW

Today
High -- | Low -- °F
--% Chance of Precip.
Yesterday
High -- | Low -- °F
Precip. -- in
7:38 AM 5:23 PM
Waxing Crescent, 28% visible
Pressure 30.29 in
Visibility 10.0 miles
Clouds Clear
Dew Point 36 °F
Humidity 47%
Rainfall 0.00 in
Snow Depth Not available.
UV 3 out of 12
Pollen .40 out of 12
Air Quality Not available.
Flu Activity Not available.
METAR KGSP 261753Z 21006KT 10SM CLR 13/02 A3029 RMK AO2 SLP256 T01330022 10133 21011 58018

More Conditions Fewer Conditions

Pressure 30.29 in
Visibility 10.0 miles
Clouds Clear
Dew Point 36 °F
Humidity 47%
Rainfall 0.00 in
Snow Depth Not available.
UV 3 out of 12
Pollen .40 out of 12
Air Quality Not available.
Flu Activity Not available.
METAR KGSP 261753Z 21006KT 10SM CLR 13/02 A3029 RMK AO2 SLP256 T01330022 10133 21011 58018

More Conditions Fewer Conditions

10-Day Weather Forecast

Almanac

Astronomy

Dec. 26, 2014 Rise Set
Actual Time
Civil Twilight
Nautical Twilight
Astronomical Twilight
Moon
Length of Visible Light
Length of Day
Tomorrow will be .
, % of the Moon is Illuminated

Today's Extremes

State Highs State Lows

Community

WunderPhotos

Upload Photos

1,780,663 photos uploaded!

WunderBlogs® & News

Nearby

Air Quality

  Air Quality AQ Index Pollutant
Not available.

Snow Depth

Station Depth Elevation

Earthquake Activity

City Distance Mag. Time & Date
Minimum magnitude displayed is 2.5.

Coastal Water Temperatures

Place Temperature

Nearby Weather Stations